createdAt,value
2022-12-01T00:00:57.818Z,13.80
2022-12-01T00:03:28.634Z,12.63
2022-12-01T00:06:03.002Z,14.53
2022-12-01T00:08:36.931Z,12.00
2022-12-01T00:11:06.109Z,13.07
2022-12-01T00:13:36.693Z,14.70
2022-12-01T00:16:15.690Z,14.47
2022-12-01T00:18:46.626Z,14.23
2022-12-01T00:21:18.422Z,14.00
2022-12-01T00:23:54.561Z,13.30
2022-12-01T00:26:25.820Z,14.17
2022-12-01T00:28:58.161Z,13.00
2022-12-01T00:31:29.344Z,13.13
2022-12-01T00:33:59.386Z,14.10
2022-12-01T00:36:29.404Z,15.00
2022-12-01T00:39:02.158Z,15.57
2022-12-01T00:41:32.219Z,14.57
2022-12-01T00:44:02.548Z,15.23
2022-12-01T00:46:32.579Z,13.50
2022-12-01T00:49:02.678Z,15.03
2022-12-01T00:51:33.049Z,13.50
2022-12-01T00:54:05.894Z,12.27
2022-12-01T00:56:36.026Z,14.90
2022-12-01T00:59:06.102Z,15.53
2022-12-01T01:01:36.614Z,12.83
2022-12-01T01:04:07.447Z,13.73
2022-12-01T01:06:37.511Z,15.13
2022-12-01T01:09:10.412Z,14.30
2022-12-01T01:11:40.610Z,14.13
2022-12-01T01:14:11.792Z,15.23
2022-12-01T01:16:41.852Z,14.97
2022-12-01T01:19:12.531Z,16.47
2022-12-01T01:21:42.587Z,15.57
2022-12-01T01:24:15.381Z,15.80
2022-12-01T01:26:45.387Z,14.67
2022-12-01T01:29:15.419Z,14.60
2022-12-01T01:31:45.447Z,15.97
2022-12-01T01:34:15.478Z,12.10
2022-12-01T01:36:46.449Z,15.23
2022-12-01T01:39:19.584Z,13.57
2022-12-01T01:41:49.705Z,15.00
2022-12-01T01:44:54.467Z,14.30
2022-12-01T01:47:30.788Z,14.07
2022-12-01T01:50:08.498Z,15.67
2022-12-01T01:52:46.033Z,13.30
2022-12-01T01:55:19.577Z,14.20
2022-12-01T01:57:49.676Z,15.30
2022-12-01T02:00:23.097Z,14.33
2022-12-01T02:02:56.028Z,15.60
2022-12-01T02:05:32.662Z,17.80
2022-12-01T02:08:05.510Z,14.33
2022-12-01T02:11:02.632Z,15.80
2022-12-01T02:13:45.299Z,17.40
2022-12-01T02:16:24.716Z,17.10
2022-12-01T02:19:12.799Z,14.40
2022-12-01T02:22:04.525Z,13.80
2022-12-01T02:25:12.191Z,14.47
2022-12-01T02:28:25.844Z,16.70
2022-12-01T02:31:04.388Z,15.00
2022-12-01T02:33:45.502Z,12.87
2022-12-01T02:36:22.338Z,14.37
2022-12-01T02:39:02.696Z,15.10
2022-12-01T02:41:42.486Z,15.93
2022-12-01T02:44:21.355Z,14.33
2022-12-01T02:47:02.310Z,14.23
2022-12-01T02:49:39.346Z,14.60
2022-12-01T02:52:11.904Z,13.03
2022-12-01T02:54:42.723Z,15.60
2022-12-01T02:57:15.324Z,15.17
2022-12-01T02:59:51.709Z,13.50
2022-12-01T03:02:43.071Z,13.60
2022-12-01T03:05:25.314Z,15.47
2022-12-01T03:08:07.264Z,15.37
2022-12-01T03:10:51.177Z,15.53
2022-12-01T03:13:35.350Z,9.07
2022-12-01T03:16:15.197Z,13.57
2022-12-01T03:18:58.177Z,13.87
2022-12-01T03:21:37.427Z,14.20
2022-12-01T03:24:15.785Z,12.70
2022-12-01T03:26:52.625Z,13.90
2022-12-01T03:29:28.703Z,15.17
2022-12-01T03:32:06.446Z,14.50
2022-12-01T03:34:46.639Z,13.53
2022-12-01T03:37:26.940Z,14.20
2022-12-01T03:40:00.823Z,15.10
2022-12-01T03:42:38.650Z,15.30
2022-12-01T03:45:17.231Z,16.00
2022-12-01T03:47:48.635Z,16.10
2022-12-01T03:50:21.585Z,15.53
2022-12-01T03:53:05.175Z,13.30
2022-12-01T03:55:41.125Z,14.23
2022-12-01T03:58:16.931Z,13.70
2022-12-01T04:00:50.052Z,14.57
2022-12-01T04:03:22.932Z,14.90
2022-12-01T04:05:56.156Z,13.60
2022-12-01T04:08:26.533Z,15.00
2022-12-01T04:10:56.602Z,14.40
2022-12-01T04:13:24.002Z,14.60
2022-12-01T04:15:56.302Z,14.70
2022-12-01T04:18:26.330Z,14.50
2022-12-01T04:20:59.145Z,16.30
2022-12-01T04:23:41.619Z,14.40
2022-12-01T04:26:15.744Z,14.97
2022-12-01T04:28:46.045Z,13.70
2022-12-01T04:31:16.097Z,15.70
2022-12-01T04:33:46.435Z,15.87
2022-12-01T04:36:19.041Z,14.30
2022-12-01T04:38:49.177Z,13.37
2022-12-01T04:41:19.781Z,15.20
2022-12-01T04:43:50.051Z,15.93
2022-12-01T04:46:20.145Z,14.43
2022-12-01T04:48:50.205Z,15.53
2022-12-01T04:51:23.013Z,15.30
2022-12-01T04:53:53.510Z,15.60
2022-12-01T04:56:23.526Z,15.27
2022-12-01T04:58:54.017Z,16.90
2022-12-01T05:01:24.068Z,16.47
2022-12-01T05:03:54.360Z,13.60
2022-12-01T05:06:29.462Z,13.17
2022-12-01T05:09:03.276Z,13.80
2022-12-01T05:11:34.997Z,15.40
2022-12-01T05:14:05.269Z,16.33
2022-12-01T05:16:36.542Z,14.47
2022-12-01T05:19:21.552Z,14.50
2022-12-01T05:21:54.879Z,12.00
2022-12-01T05:24:24.887Z,14.03
2022-12-01T05:26:54.968Z,13.10
2022-12-01T05:29:25.021Z,15.80
2022-12-01T05:31:55.125Z,14.37
2022-12-01T05:34:25.223Z,13.37
2022-12-01T05:36:57.815Z,15.90
2022-12-01T05:39:27.815Z,15.20
2022-12-01T05:41:57.839Z,14.30
2022-12-01T05:44:27.930Z,13.00
2022-12-01T05:46:57.922Z,15.37
2022-12-01T05:49:27.987Z,16.37
2022-12-01T05:52:00.569Z,14.70
2022-12-01T05:54:32.916Z,14.03
2022-12-01T05:57:03.018Z,14.73
2022-12-01T05:59:33.020Z,16.00
2022-12-01T06:02:03.277Z,14.30
2022-12-01T06:04:33.409Z,14.10
2022-12-01T06:07:06.006Z,14.37
2022-12-01T06:09:36.137Z,14.60
2022-12-01T06:12:06.500Z,15.20
2022-12-01T06:14:36.580Z,13.10
2022-12-01T06:17:06.752Z,16.30
2022-12-01T06:19:36.791Z,16.30
2022-12-01T06:22:09.411Z,17.10
2022-12-01T06:24:39.468Z,14.60
2022-12-01T06:27:10.438Z,18.33
2022-12-01T06:29:42.280Z,18.27
2022-12-01T06:32:13.903Z,16.10
2022-12-01T06:34:43.982Z,16.70
2022-12-01T06:37:17.943Z,16.57
2022-12-01T06:39:48.394Z,16.53
2022-12-01T06:42:18.703Z,17.43
2022-12-01T06:44:48.920Z,16.40
2022-12-01T06:47:18.954Z,17.40
2022-12-01T06:49:49.301Z,17.13
2022-12-01T06:52:22.109Z,16.23
2022-12-01T06:54:52.145Z,16.47
2022-12-01T06:57:22.558Z,18.30
2022-12-01T06:59:53.017Z,16.20
2022-12-01T07:02:23.400Z,16.97
2022-12-01T07:04:53.468Z,16.90
2022-12-01T07:07:26.279Z,15.27
2022-12-01T07:09:56.306Z,17.47
2022-12-01T07:12:26.412Z,17.67
2022-12-01T07:14:56.453Z,17.37
2022-12-01T07:17:26.595Z,18.03
2022-12-01T07:19:56.639Z,17.83
2022-12-01T07:22:32.789Z,16.83
2022-12-01T07:25:03.170Z,16.40
2022-12-01T07:27:33.751Z,18.80
2022-12-01T07:30:04.314Z,16.30
2022-12-01T07:32:34.329Z,19.37
2022-12-01T07:35:04.353Z,14.83
2022-12-01T07:37:37.037Z,17.17
2022-12-01T07:40:10.317Z,18.60
2022-12-01T07:42:43.800Z,16.83
2022-12-01T07:45:14.152Z,17.27
2022-12-01T07:47:44.635Z,17.50
2022-12-01T07:50:15.253Z,18.30
2022-12-01T07:52:47.971Z,17.70
2022-12-01T07:55:18.150Z,18.00
2022-12-01T07:57:48.172Z,16.10
2022-12-01T08:00:19.440Z,18.07
2022-12-01T08:02:52.277Z,16.90
2022-12-01T08:05:22.359Z,16.70
2022-12-01T08:07:56.912Z,19.30
2022-12-01T08:10:26.931Z,17.93
2022-12-01T08:12:57.012Z,19.93
2022-12-01T08:15:27.419Z,17.33
2022-12-01T08:17:57.496Z,17.13
2022-12-01T08:20:27.728Z,19.83
2022-12-01T08:23:03.775Z,21.13
2022-12-01T08:25:33.826Z,19.43
2022-12-01T08:28:04.756Z,18.97
2022-12-01T08:30:34.900Z,19.00
2022-12-01T08:33:04.981Z,16.50
2022-12-01T08:35:38.788Z,19.67
2022-12-01T08:38:12.852Z,19.13
2022-12-01T08:40:42.865Z,17.03
2022-12-01T08:43:23.151Z,15.23
2022-12-01T08:46:04.089Z,19.20
2022-12-01T08:48:34.125Z,17.23
2022-12-01T08:51:07.810Z,19.20
2022-12-01T08:53:45.797Z,18.30
2022-12-01T08:56:20.378Z,18.37
2022-12-01T08:58:51.226Z,17.73
2022-12-01T09:01:22.676Z,18.83
2022-12-01T09:04:05.747Z,17.63
2022-12-01T09:06:42.077Z,20.20
2022-12-01T09:09:18.971Z,18.17
2022-12-01T09:11:52.254Z,18.50
2022-12-01T09:14:24.131Z,17.23
2022-12-01T09:16:54.532Z,17.20
2022-12-01T09:19:25.482Z,18.17
2022-12-01T09:21:55.990Z,17.60
2022-12-01T09:24:29.059Z,17.40
2022-12-01T09:27:03.346Z,20.77
2022-12-01T09:29:34.532Z,17.70
2022-12-01T09:32:04.645Z,18.03
2022-12-01T09:34:34.645Z,17.10
2022-12-01T09:37:04.979Z,17.13
2022-12-01T09:39:39.112Z,17.77
2022-12-01T09:42:18.612Z,15.40
2022-12-01T09:44:55.896Z,19.27
2022-12-01T09:47:31.684Z,18.30
2022-12-01T09:50:08.107Z,18.87
2022-12-01T09:52:44.834Z,16.53
2022-12-01T09:55:21.032Z,18.37
2022-12-01T09:57:54.620Z,17.43
2022-12-01T10:00:28.862Z,18.23
2022-12-01T10:03:09.905Z,17.40
2022-12-01T10:06:25.847Z,16.30
2022-12-01T10:08:59.529Z,18.07
2022-12-01T10:11:38.060Z,18.63
2022-12-01T10:14:20.014Z,17.00
2022-12-01T10:17:08.032Z,18.53
2022-12-01T10:19:53.868Z,16.00
2022-12-01T10:22:56.479Z,16.97
2022-12-01T10:25:30.309Z,16.27
2022-12-01T10:28:47.229Z,18.73
2022-12-01T10:31:24.266Z,17.73
2022-12-01T10:34:03.601Z,15.63
2022-12-01T10:36:36.352Z,17.67
2022-12-01T10:39:10.211Z,19.50
2022-12-01T10:41:43.000Z,16.27
2022-12-01T10:44:16.587Z,18.67
2022-12-01T10:46:51.929Z,19.60
2022-12-01T10:49:23.528Z,17.63
2022-12-01T10:51:57.459Z,17.00
2022-12-01T10:54:38.320Z,15.80
2022-12-01T10:57:17.593Z,16.27
2022-12-01T10:59:55.576Z,15.00
2022-12-01T11:02:30.399Z,17.33
2022-12-01T11:05:03.915Z,17.33
2022-12-01T11:07:38.549Z,15.40
2022-12-01T11:10:21.416Z,19.03
2022-12-01T11:12:59.898Z,17.60
2022-12-01T11:15:37.092Z,19.07
2022-12-01T11:18:10.037Z,16.70
2022-12-01T11:20:43.136Z,16.60
2022-12-01T11:23:29.883Z,16.20
2022-12-01T11:26:06.538Z,15.37
2022-12-01T11:28:38.726Z,16.03
2022-12-01T11:31:13.837Z,17.40
2022-12-01T11:33:52.719Z,15.73
2022-12-01T11:36:29.816Z,15.37
2022-12-01T11:39:03.651Z,16.50
2022-12-01T11:41:39.450Z,17.97
2022-12-01T11:44:43.538Z,16.37
2022-12-01T11:47:24.058Z,14.40
2022-12-01T11:50:00.671Z,16.50
2022-12-01T11:52:36.596Z,16.13
2022-12-01T11:55:24.790Z,15.73
2022-12-01T11:57:59.091Z,15.53
2022-12-01T12:00:33.259Z,17.00
2022-12-01T12:03:23.891Z,15.70
2022-12-01T12:09:39.020Z,16.07
2022-12-01T12:12:30.269Z,18.37
2022-12-01T12:15:18.803Z,15.57
2022-12-01T12:18:11.061Z,15.57
2022-12-01T12:21:00.628Z,15.90
2022-12-01T12:24:23.637Z,15.13
2022-12-01T12:27:07.301Z,14.90
2022-12-01T12:29:56.491Z,15.20
2022-12-01T12:32:50.400Z,15.93
2022-12-01T12:35:39.848Z,15.60
2022-12-01T12:38:35.892Z,16.10
2022-12-01T12:41:24.117Z,16.33
2022-12-01T12:44:19.322Z,15.60
2022-12-01T12:47:02.606Z,15.90
2022-12-01T12:49:47.437Z,15.77
2022-12-01T12:52:27.326Z,17.90
2022-12-01T12:55:04.522Z,16.17
2022-12-01T12:57:39.958Z,14.97
2022-12-01T13:00:18.737Z,18.53
2022-12-01T13:02:55.780Z,15.27
2022-12-01T13:05:34.100Z,16.20
2022-12-01T13:08:15.813Z,15.93
2022-12-01T13:10:54.311Z,15.20
2022-12-01T13:13:32.699Z,13.93
2022-12-01T13:16:07.001Z,16.50
2022-12-01T13:18:43.721Z,14.37
2022-12-01T13:21:21.875Z,15.53
2022-12-01T13:23:55.468Z,16.67
2022-12-01T13:26:26.468Z,16.50
2022-12-01T13:29:00.312Z,16.30
2022-12-01T13:31:30.799Z,15.07
2022-12-01T13:34:05.067Z,15.67
2022-12-01T13:36:52.226Z,13.30
2022-12-01T13:39:29.476Z,15.00
2022-12-01T13:42:09.846Z,14.27
2022-12-01T13:44:45.063Z,14.53
2022-12-01T13:47:39.864Z,15.20
2022-12-01T13:50:54.825Z,16.50
2022-12-01T13:53:37.569Z,16.40
2022-12-01T13:56:41.138Z,14.13
2022-12-01T14:00:06.042Z,16.07
2022-12-01T14:02:44.952Z,15.27
2022-12-01T14:05:53.745Z,16.67
2022-12-01T14:08:27.839Z,14.63
2022-12-01T14:11:02.307Z,16.77
2022-12-01T14:13:56.164Z,15.23
2022-12-01T14:16:27.766Z,14.13
2022-12-01T14:19:01.380Z,15.50
2022-12-01T14:21:52.543Z,16.47
2022-12-01T14:24:28.535Z,13.10
2022-12-01T14:26:59.042Z,15.80
2022-12-01T14:29:38.360Z,15.97
2022-12-01T14:32:29.228Z,13.17
2022-12-01T14:35:06.068Z,14.43
2022-12-01T14:37:52.426Z,17.80
2022-12-01T14:40:31.618Z,15.20
2022-12-01T14:43:17.505Z,13.70
2022-12-01T14:46:07.878Z,14.80
2022-12-01T14:48:45.805Z,14.67
2022-12-01T14:51:29.645Z,14.57
2022-12-01T14:54:03.446Z,14.13
2022-12-01T14:56:36.871Z,13.70
2022-12-01T14:59:22.708Z,13.07
2022-12-01T15:02:01.020Z,13.37
2022-12-01T15:04:31.151Z,15.87
2022-12-01T15:07:01.344Z,14.83
2022-12-01T15:09:34.370Z,14.33
2022-12-01T15:12:09.446Z,16.30
2022-12-01T15:14:49.516Z,14.80
2022-12-01T15:17:34.563Z,15.97
2022-12-01T15:20:05.242Z,13.03
2022-12-01T15:22:37.350Z,15.63
2022-12-01T15:25:17.667Z,15.50
2022-12-01T15:27:47.948Z,13.97
2022-12-01T15:30:19.794Z,15.63
2022-12-01T15:32:53.382Z,15.10
2022-12-01T15:35:26.006Z,18.33
2022-12-01T15:37:57.423Z,15.60
2022-12-01T15:41:20.721Z,17.67
2022-12-01T15:43:23.147Z,17.30
2022-12-01T15:45:59.249Z,16.90
2022-12-01T15:48:39.340Z,18.73
2022-12-01T15:51:16.483Z,17.80
2022-12-01T15:53:53.982Z,14.37
2022-12-01T15:56:31.313Z,14.77
2022-12-01T15:59:11.178Z,13.10
2022-12-01T16:01:43.451Z,15.00
2022-12-01T16:04:24.157Z,15.57
2022-12-01T16:07:07.418Z,15.30
2022-12-01T16:09:42.681Z,15.30
2022-12-01T16:12:27.421Z,14.87
2022-12-01T16:15:15.094Z,16.13
2022-12-01T16:17:49.020Z,15.47
2022-12-01T16:20:28.334Z,15.20
2022-12-01T16:23:01.837Z,16.97
2022-12-01T16:25:37.611Z,17.87
2022-12-01T16:28:10.247Z,16.50
2022-12-01T16:30:42.585Z,17.33
2022-12-01T16:33:20.369Z,17.53
2022-12-01T16:35:54.004Z,17.63
2022-12-01T16:38:28.366Z,16.90
2022-12-01T16:41:01.932Z,16.63
2022-12-01T16:43:33.661Z,14.33
2022-12-01T16:46:06.676Z,17.60
2022-12-01T16:48:37.807Z,16.23
2022-12-01T16:51:11.273Z,16.13
2022-12-01T16:53:49.601Z,15.30
2022-12-01T16:56:20.907Z,17.27
2022-12-01T16:58:50.886Z,17.70
2022-12-01T17:01:21.027Z,16.73
2022-12-01T17:03:51.043Z,16.13
2022-12-01T17:06:23.979Z,15.63
2022-12-01T17:08:54.014Z,16.20
2022-12-01T17:11:24.004Z,18.23
2022-12-01T17:13:54.024Z,17.13
2022-12-01T17:16:24.121Z,18.17
2022-12-01T17:18:54.168Z,16.00
2022-12-01T17:21:26.769Z,17.40
2022-12-01T17:23:56.933Z,15.40
2022-12-01T17:26:27.167Z,15.63
2022-12-01T17:28:57.812Z,18.20
2022-12-01T17:31:27.992Z,17.27
2022-12-01T17:33:58.248Z,17.17
2022-12-01T17:36:30.873Z,17.87
2022-12-01T17:39:00.986Z,17.73
2022-12-01T17:41:35.633Z,18.37
2022-12-01T17:44:06.316Z,19.27
2022-12-01T17:46:37.368Z,16.17
2022-12-01T17:49:09.491Z,17.30
2022-12-01T17:51:43.929Z,17.40
2022-12-01T17:54:14.123Z,18.20
2022-12-01T17:56:44.283Z,17.00
2022-12-01T17:59:14.586Z,18.57
2022-12-01T18:01:44.641Z,17.83
2022-12-01T18:04:14.622Z,17.73
2022-12-01T18:06:53.605Z,17.77
2022-12-01T18:09:24.819Z,17.40
2022-12-01T18:11:57.541Z,18.20
2022-12-01T18:14:28.735Z,17.90
2022-12-01T18:16:58.788Z,18.43
2022-12-01T18:19:29.280Z,18.07
2022-12-01T18:22:02.282Z,15.77
2022-12-01T18:24:32.381Z,17.80
2022-12-01T18:27:02.382Z,15.50
2022-12-01T18:29:32.479Z,15.47
2022-12-01T18:32:04.005Z,19.00
2022-12-01T18:34:34.063Z,17.77
2022-12-01T18:37:08.177Z,18.23
2022-12-01T18:39:38.305Z,17.67
2022-12-01T18:42:08.561Z,16.50
2022-12-01T18:44:38.897Z,15.80
2022-12-01T18:47:09.342Z,16.30
2022-12-01T18:49:39.462Z,16.43
2022-12-01T18:52:12.955Z,15.37
2022-12-01T18:54:43.177Z,18.20
2022-12-01T18:57:14.669Z,17.60
2022-12-01T18:59:44.677Z,18.60
2022-12-01T19:02:14.943Z,17.17
2022-12-01T19:04:45.312Z,15.73
2022-12-01T19:07:18.473Z,17.00
2022-12-01T19:09:49.114Z,16.00
2022-12-01T19:12:19.340Z,17.70
2022-12-01T19:14:49.826Z,16.17
2022-12-01T19:17:20.147Z,18.20
2022-12-01T19:19:51.011Z,15.90
2022-12-01T19:22:23.936Z,18.43
2022-12-01T19:24:54.420Z,16.80
2022-12-01T19:27:24.568Z,17.60
2022-12-01T19:29:54.805Z,17.47
2022-12-01T19:32:25.828Z,15.80
2022-12-01T19:34:55.904Z,18.90
2022-12-01T19:37:28.836Z,15.50
2022-12-01T19:39:58.817Z,17.73
2022-12-01T19:42:30.249Z,16.80
2022-12-01T19:45:01.254Z,16.67
2022-12-01T19:47:34.477Z,17.87
2022-12-01T19:50:04.740Z,17.50
2022-12-01T19:52:37.400Z,18.40
2022-12-01T19:55:08.610Z,16.63
2022-12-01T19:57:38.637Z,18.40
2022-12-01T20:00:10.763Z,18.30
2022-12-01T20:02:44.148Z,19.50
2022-12-01T20:05:14.325Z,18.07
2022-12-01T20:07:47.632Z,16.97
2022-12-01T20:10:20.369Z,17.10
2022-12-01T20:12:50.897Z,17.70
2022-12-01T20:15:21.076Z,15.70
2022-12-01T20:17:51.068Z,17.67
2022-12-01T20:20:21.163Z,19.30
2022-12-01T20:22:53.794Z,19.77
2022-12-01T20:25:23.886Z,17.50
2022-12-01T20:27:53.948Z,18.53
2022-12-01T20:30:25.090Z,15.43
2022-12-01T20:32:55.159Z,18.07
2022-12-01T20:35:25.255Z,19.03
2022-12-01T20:37:57.849Z,18.50
2022-12-01T20:40:27.848Z,16.30
2022-12-01T20:42:57.943Z,17.00
2022-12-01T20:45:28.105Z,16.30
2022-12-01T20:47:58.124Z,18.87
2022-12-01T20:50:28.232Z,17.37
2022-12-01T20:53:00.870Z,16.73
2022-12-01T20:55:30.979Z,16.67
2022-12-01T20:58:02.742Z,18.10
2022-12-01T21:00:33.378Z,17.17
2022-12-01T21:03:03.557Z,15.87
2022-12-01T21:05:35.248Z,17.93
2022-12-01T21:08:11.622Z,18.67
2022-12-01T21:10:44.805Z,17.97
2022-12-01T21:13:34.909Z,18.20
2022-12-01T21:16:10.947Z,17.93
2022-12-01T21:18:53.364Z,16.30
2022-12-01T21:21:27.644Z,20.40
2022-12-01T21:24:15.624Z,19.77
2022-12-01T21:26:51.288Z,18.37
2022-12-01T21:29:25.228Z,19.67
2022-12-01T21:32:01.635Z,18.10
2022-12-01T21:34:32.549Z,18.40
2022-12-01T21:37:09.963Z,17.20
2022-12-01T21:39:43.158Z,18.17
2022-12-01T21:42:21.226Z,18.60
2022-12-01T21:44:51.834Z,19.77
2022-12-01T21:47:25.352Z,17.77
2022-12-01T21:49:59.867Z,18.60
2022-12-01T21:52:42.618Z,15.73
2022-12-01T21:55:41.253Z,17.50
2022-12-01T21:58:29.073Z,19.60
2022-12-01T22:01:01.836Z,17.30
2022-12-01T22:03:35.692Z,19.57
2022-12-01T22:06:33.986Z,17.60
2022-12-01T22:09:15.272Z,19.07
2022-12-01T22:11:54.649Z,18.57
2022-12-01T22:14:30.622Z,19.80
2022-12-01T22:17:21.956Z,19.60
2022-12-01T22:20:00.310Z,18.80
2022-12-01T22:22:32.802Z,18.50
2022-12-01T22:25:21.780Z,19.37
2022-12-01T22:27:58.236Z,20.70
2022-12-01T22:30:28.403Z,19.20
2022-12-01T22:33:03.739Z,18.90
2022-12-01T22:35:42.024Z,20.00
2022-12-01T22:38:31.123Z,17.97
2022-12-01T22:41:06.323Z,19.33
2022-12-01T22:43:48.047Z,18.87
2022-12-01T22:46:25.746Z,19.30
2022-12-01T22:48:58.580Z,18.10
2022-12-01T22:51:44.549Z,18.77
2022-12-01T22:54:40.239Z,18.00
2022-12-01T22:57:28.425Z,16.70
2022-12-01T23:00:15.001Z,18.23
2022-12-01T23:02:45.509Z,19.57
2022-12-01T23:05:27.498Z,16.70
2022-12-01T23:07:58.588Z,18.50
2022-12-01T23:10:33.110Z,20.60
2022-12-01T23:13:15.505Z,17.80
2022-12-01T23:15:50.787Z,19.80
2022-12-01T23:18:24.924Z,18.60
2022-12-01T23:20:58.356Z,18.17
2022-12-01T23:23:33.114Z,18.63
2022-12-01T23:26:06.419Z,19.80
2022-12-01T23:28:41.419Z,18.93
2022-12-01T23:31:14.511Z,19.20
2022-12-01T23:33:47.605Z,19.30
2022-12-01T23:36:21.825Z,19.17
2022-12-01T23:38:58.286Z,20.30
2022-12-01T23:41:35.263Z,18.80
2022-12-01T23:44:18.869Z,20.40
2022-12-01T23:46:55.739Z,18.37
2022-12-01T23:49:31.607Z,20.93
2022-12-01T23:52:05.951Z,19.53
2022-12-01T23:54:37.865Z,19.70
2022-12-01T23:57:19.215Z,19.97
2022-12-01T23:59:49.444Z,19.37
